Time;durP1;ratioP1;P1;durP2;ratioP2;P2;SDS_P1;SDS_P2;PMS_P1;PMS_P2;Temp;Humidity;BMP_temperature;BMP_pressure;BME280_temperature;BME280_humidity;BME280_pressure;Samples;Min_cycle;Max_cycle;Signal;HPM_P1;HPM_P2
2023/07/18 00:00:02;;;;;;;4.88;2.55;;;;;;;21.12;48.13;100733.56;10314619;28;20057;-57
2023/07/18 00:05:04;;;;;;;4.60;2.60;;;;;;;21.08;48.26;100740.34;10313792;28;20189;-59
2023/07/18 00:10:08;;;;;;;3.85;2.38;;;;;;;21.00;48.45;100730.44;10315854;28;20191;-57
2023/07/18 00:15:10;;;;;;;3.85;2.53;;;;;;;21.06;48.54;100739.66;10323993;28;20049;-57
2023/07/18 00:20:13;;;;;;;4.03;2.55;;;;;;;20.97;48.59;100738.03;10318280;28;20463;-57
2023/07/18 00:25:18;;;;;;;4.90;2.72;;;;;;;20.64;48.61;100697.66;10312860;28;20049;-57
2023/07/18 00:30:21;;;;;;;5.68;2.85;;;;;;;20.72;48.87;100704.94;10316641;28;20798;-57
2023/07/18 00:35:23;;;;;;;3.35;1.98;;;;;;;20.91;48.93;100736.94;10312611;28;20148;-57
2023/07/18 00:40:24;;;;;;;3.50;2.60;;;;;;;20.91;49.17;100736.06;10313939;28;20052;-57
2023/07/18 00:45:46;;;;;;;4.32;2.33;;;;;;;20.88;49.20;100737.25;10319640;28;20049;-57
2023/07/18 00:50:48;;;;;;;4.38;2.42;;;;;;;20.85;49.21;100729.50;10320625;28;20045;-57
2023/07/18 00:55:50;;;;;;;3.35;2.25;;;;;;;20.75;49.24;100718.94;10321252;28;20057;-57
2023/07/18 01:00:52;;;;;;;3.33;2.60;;;;;;;20.81;49.43;100741.72;10326461;28;20603;-58
2023/07/18 01:05:54;;;;;;;3.25;2.58;;;;;;;20.75;49.41;100727.03;10327824;28;20611;-56
2023/07/18 01:10:55;;;;;;;4.18;2.53;;;;;;;20.76;49.61;100744.09;10332443;28;20714;-58
2023/07/18 01:15:57;;;;;;;4.18;2.13;;;;;;;20.74;49.59;100740.75;10317287;28;20099;-57
2023/07/18 01:20:59;;;;;;;2.75;2.30;;;;;;;20.72;49.85;100732.81;10321980;28;20057;-57
2023/07/18 01:26:01;;;;;;;4.53;2.63;;;;;;;20.70;49.73;100724.00;10316980;28;20069;-55
2023/07/18 01:31:02;;;;;;;4.88;2.40;;;;;;;20.67;49.94;100729.78;10315518;28;20054;-56
2023/07/18 01:36:04;;;;;;;3.38;2.20;;;;;;;20.66;49.69;100730.81;10321425;28;20052;-56
2023/07/18 01:41:07;;;;;;;5.03;2.40;;;;;;;20.63;49.67;100723.03;10316924;28;20818;-56
2023/07/18 01:46:08;;;;;;;3.17;2.35;;;;;;;20.63;49.66;100723.88;10322011;28;20056;-56
2023/07/18 01:51:10;;;;;;;4.13;2.33;;;;;;;20.61;49.76;100715.09;10316701;28;20053;-56
2023/07/18 01:56:11;;;;;;;4.60;2.63;;;;;;;20.49;49.63;100701.13;10320498;28;20056;-54
2023/07/18 02:01:13;;;;;;;4.07;2.20;;;;;;;20.55;49.76;100712.25;10320489;28;20097;-56
2023/07/18 02:06:15;;;;;;;3.20;2.40;;;;;;;20.45;49.84;100694.38;10322104;28;20061;-56
2023/07/18 02:11:16;;;;;;;3.50;2.50;;;;;;;20.52;50.01;100709.91;10317501;28;20741;-56
2023/07/18 02:16:18;;;;;;;3.85;2.60;;;;;;;20.46;50.34;100703.34;10322547;28;20111;-57
2023/07/18 02:21:20;;;;;;;3.13;2.30;;;;;;;20.45;50.58;100710.63;10315961;28;20053;-56
2023/07/18 02:26:22;;;;;;;4.40;2.65;;;;;;;20.42;50.58;100700.16;10316212;28;20049;-55
2023/07/18 02:31:23;;;;;;;4.10;2.38;;;;;;;20.33;50.62;100687.72;10322012;28;20139;-55
2023/07/18 02:36:24;;;;;;;3.38;2.30;;;;;;;20.37;50.69;100699.84;10325219;28;20241;-54
2023/07/18 02:41:27;;;;;;;3.75;2.38;;;;;;;20.31;51.06;100709.50;10321222;28;20049;-56
2023/07/18 02:46:29;;;;;;;3.60;2.07;;;;;;;20.27;50.81;100712.75;10320142;28;20061;-56
2023/07/18 02:51:30;;;;;;;4.57;2.30;;;;;;;20.23;50.76;100711.41;10315820;28;20086;-55
2023/07/18 02:56:32;;;;;;;3.53;2.08;;;;;;;20.17;51.29;100712.09;10313318;28;20145;-56
2023/07/18 03:01:34;;;;;;;4.07;2.25;;;;;;;20.07;51.34;100705.06;10323788;28;20081;-56
2023/07/18 03:06:36;;;;;;;4.10;2.00;;;;;;;20.00;51.40;100700.53;10326398;28;21602;-56
2023/07/18 03:11:37;;;;;;;5.15;2.15;;;;;;;19.91;51.77;100697.00;10314987;28;20539;-56
2023/07/18 03:16:39;;;;;;;4.55;2.97;;;;;;;19.90;52.25;100706.13;10322916;28;20053;-56
2023/07/18 03:21:43;;;;;;;2.85;2.08;;;;;;;19.85;52.04;100727.41;10317191;28;20056;-57
2023/07/18 03:26:45;;;;;;;2.97;2.28;;;;;;;19.80;52.12;100717.09;10314258;28;20092;-56
2023/07/18 03:31:46;;;;;;;3.28;2.50;;;;;;;19.84;52.01;100728.44;10320149;28;20052;-56
2023/07/18 03:36:48;;;;;;;4.32;2.20;;;;;;;19.72;52.12;100704.44;10319718;28;20496;-56
2023/07/18 03:41:49;;;;;;;3.47;3.00;;;;;;;19.80;52.23;100716.28;10315571;28;20053;-56
2023/07/18 03:46:50;;;;;;;6.97;2.38;;;;;;;19.76;51.79;100708.50;10314469;28;20049;-56
2023/07/18 03:52:06;;;;;;;4.07;2.50;;;;;;;19.72;52.19;100709.00;10316816;28;20063;-56
2023/07/18 03:57:08;;;;;;;2.85;2.40;;;;;;;19.63;52.40;100699.25;10317727;28;21342;-57
2023/07/18 04:02:09;;;;;;;3.30;2.63;;;;;;;19.68;52.33;100704.94;10330390;28;20061;-56
2023/07/18 04:07:11;;;;;;;3.33;2.33;;;;;;;19.68;52.30;100703.13;10319194;28;20081;-56
2023/07/18 04:12:15;;;;;;;3.45;2.17;;;;;;;19.72;52.64;100704.44;10312456;28;20057;-56
2023/07/18 04:17:16;;;;;;;;;;;;;;;19.72;52.31;100704.44;10320758;28;20041;-57
2023/07/18 04:22:18;;;;;;;3.25;2.33;;;;;;;19.68;52.33;100713.91;10331036;28;19933;-57
2023/07/18 04:27:19;;;;;;;3.38;2.28;;;;;;;19.66;52.86;100704.28;10324014;28;20052;-57
2023/07/18 04:32:21;;;;;;;4.80;2.30;;;;;;;19.69;52.88;100712.06;10328533;28;20120;-56
2023/07/18 04:37:23;;;;;;;5.03;2.42;;;;;;;19.68;52.95;100713.06;10329957;28;20140;-56
2023/07/18 04:42:24;;;;;;;5.05;3.40;;;;;;;19.59;53.06;100710.38;10330050;28;20735;-56
2023/07/18 04:47:26;;;;;;;6.35;2.97;;;;;;;19.53;53.46;100707.50;10328672;28;20497;-57
2023/07/18 04:52:28;;;;;;;5.95;2.97;;;;;;;19.48;53.71;100712.59;10325423;28;20162;-56
2023/07/18 04:57:29;;;;;;;5.88;3.33;;;;;;;19.47;53.75;100700.09;10326337;28;20144;-57
2023/07/18 05:02:31;;;;;;;3.90;2.80;;;;;;;19.47;53.95;100698.25;10313187;28;20054;-57
2023/07/18 05:07:32;;;;;;;3.85;2.72;;;;;;;19.50;53.26;100707.84;10300742;28;20368;-57
2023/07/18 05:12:34;;;;;;;4.72;3.05;;;;;;;19.02;54.44;100687.00;10317960;28;20061;-57
2023/07/18 05:17:35;;;;;;;4.97;2.75;;;;;;;19.23;54.10;100699.09;10312357;28;20069;-58
2023/07/18 05:22:39;;;;;;;5.50;2.90;;;;;;;19.25;53.96;100702.50;10334995;28;20534;-58
2023/07/18 05:27:41;;;;;;;5.20;2.67;;;;;;;19.29;54.02;100701.16;10316928;28;21078;-57
2023/07/18 05:32:43;;;;;;;5.53;3.08;;;;;;;19.24;54.77;100690.00;10315573;28;20434;-57
2023/07/18 05:37:45;;;;;;;5.85;3.03;;;;;;;19.36;54.44;100702.13;10319779;28;20046;-57
2023/07/18 05:42:46;;;;;;;3.67;2.70;;;;;;;19.38;54.26;100702.81;10319378;28;20072;-65
2023/07/18 05:47:48;;;;;;;6.80;3.67;;;;;;;19.48;54.30;100708.03;10318673;28;20057;-57
2023/07/18 05:52:50;;;;;;;5.22;3.30;;;;;;;19.49;54.47;100698.09;10319570;28;20053;-60
2023/07/18 05:57:52;;;;;;;6.30;3.63;;;;;;;19.52;54.04;100703.16;10315709;28;20061;-57
2023/07/18 06:02:54;;;;;;;6.28;3.33;;;;;;;19.61;54.15;100708.34;10313914;28;20065;-59
2023/07/18 06:07:59;;;;;;;6.55;3.90;;;;;;;19.71;53.87;100713.56;10320618;28;20970;-55
2023/07/18 06:13:00;;;;;;;9.43;3.58;;;;;;;19.84;54.09;100709.53;10311791;28;20073;-56
2023/07/18 06:18:02;;;;;;;7.95;3.33;;;;;;;19.88;53.98;100691.97;10310895;28;20054;-56
2023/07/18 06:23:04;;;;;;;9.13;2.85;;;;;;;20.07;52.99;100691.53;10310571;28;20056;-56
2023/07/18 06:28:06;;;;;;;6.60;3.33;;;;;;;20.23;52.51;100684.38;10309645;28;20056;-56
2023/07/18 06:33:08;;;;;;;7.20;3.53;;;;;;;20.27;51.86;100675.72;10317513;28;20053;-56
2023/07/18 06:38:09;;;;;;;4.28;2.80;;;;;;;20.37;52.89;100662.00;10316177;28;20055;-56
2023/07/18 06:43:11;;;;;;;8.23;3.28;;;;;;;20.54;51.85;100660.03;10315638;28;20061;-57
2023/07/18 06:48:13;;;;;;;4.60;2.55;;;;;;;20.77;51.66;100665.47;10315741;28;20828;-56
2023/07/18 06:53:17;;;;;;;5.65;2.70;;;;;;;20.83;50.79;100664.75;10315287;28;20057;-57
2023/07/18 06:58:19;;;;;;;3.40;2.38;;;;;;;21.01;50.79;100658.19;10319105;28;20506;-55
2023/07/18 07:03:21;;;;;;;6.80;2.92;;;;;;;21.18;50.21;100656.16;10318108;28;20124;-56
2023/07/18 07:08:24;;;;;;;7.70;2.92;;;;;;;21.29;48.93;100652.22;10317789;28;20053;-57
2023/07/18 07:13:26;;;;;;;4.30;2.57;;;;;;;21.35;48.38;100640.63;10318647;28;20066;-59
2023/07/18 07:18:29;;;;;;;3.77;2.03;;;;;;;21.50;47.60;100649.63;10308989;28;20054;-58
2023/07/18 07:23:31;;;;;;;3.05;2.03;;;;;;;21.69;46.94;100647.38;10317774;28;20057;-56
2023/07/18 07:28:35;;;;;;;4.03;2.25;;;;;;;21.77;46.50;100641.88;10318590;28;20624;-56
2023/07/18 07:33:37;;;;;;;3.85;1.90;;;;;;;21.83;45.24;100619.47;10316566;28;20061;-55
2023/07/18 07:38:38;;;;;;;6.05;2.00;;;;;;;22.00;44.89;100620.06;10316104;28;20111;-56
2023/07/18 07:43:40;;;;;;;2.22;1.42;;;;;;;22.02;44.17;100626.16;10319458;28;20073;-57
2023/07/18 07:48:41;;;;;;;6.25;1.90;;;;;;;22.23;44.69;100622.66;10314635;28;20053;-56
2023/07/18 07:53:43;;;;;;;2.78;1.42;;;;;;;22.39;43.14;100604.50;10312216;28;20111;-56
2023/07/18 07:58:44;;;;;;;3.38;1.52;;;;;;;22.64;42.92;100609.53;10315483;28;20230;-56
2023/07/18 08:04:07;;;;;;;3.85;1.70;;;;;;;22.86;42.67;100605.75;10314159;28;20038;-56
2023/07/18 08:09:10;;;;;;;3.25;1.58;;;;;;;22.92;43.60;100591.44;10311679;28;20065;-57
2023/07/18 08:14:11;;;;;;;3.22;1.45;;;;;;;23.11;41.86;100603.47;10308790;28;20135;-55
2023/07/18 08:19:13;;;;;;;3.15;1.83;;;;;;;23.04;41.21;100588.16;10306364;28;20559;-55
2023/07/18 08:24:14;;;;;;;3.47;1.70;;;;;;;23.19;41.92;100596.22;10310666;28;20144;-55
2023/07/18 08:29:16;;;;;;;6.93;1.92;;;;;;;23.38;42.15;100570.25;10308252;28;20053;-53
2023/07/18 08:34:19;;;;;;;2.33;1.73;;;;;;;23.74;41.24;100574.59;10306912;28;20787;-54
2023/07/18 08:39:20;;;;;;;2.58;1.67;;;;;;;23.79;40.95;100561.22;10306767;28;20057;-56
2023/07/18 08:44:22;;;;;;;1.90;1.38;;;;;;;23.95;40.43;100544.59;10310971;28;20527;-54
2023/07/18 08:49:25;;;;;;;2.15;1.60;;;;;;;24.11;40.22;100558.84;10311745;28;20499;-55
2023/07/18 08:54:27;;;;;;;4.13;1.42;;;;;;;24.00;39.79;100547.56;10307369;28;20053;-54
2023/07/18 08:59:30;;;;;;;3.58;1.20;;;;;;;24.18;40.03;100537.97;10308277;28;20068;-54
2023/07/18 09:04:31;;;;;;;;;;;;;;;24.42;38.92;100528.34;10312785;28;20045;-54
2023/07/18 09:09:33;;;;;;;9.75;1.92;;;;;;;24.63;38.35;100529.25;10316025;28;19998;-54
2023/07/18 09:14:34;;;;;;;3.30;1.00;;;;;;;24.72;38.51;100521.72;10318200;28;20116;-54
2023/07/18 09:19:45;;;;;;;2.30;1.40;;;;;;;24.86;38.40;100501.56;10315552;28;21976;-54
2023/07/18 09:24:47;;;;;;;2.25;1.55;;;;;;;25.14;37.74;100503.19;10325642;28;20137;-55
2023/07/18 09:29:50;;;;;;;2.38;1.40;;;;;;;25.34;37.00;100490.41;10313896;28;20050;-54
2023/07/18 09:34:52;;;;;;;2.45;1.50;;;;;;;25.52;36.61;100472.50;10313850;28;20064;-54
2023/07/18 09:39:54;;;;;;;3.75;1.50;;;;;;;25.54;36.51;100448.59;10316517;28;20144;-54
2023/07/18 09:44:56;;;;;;;4.07;1.50;;;;;;;25.71;35.04;100466.09;10316889;28;20061;-54
2023/07/18 09:50:13;;;;;;;3.20;2.03;;;;;;;25.97;34.84;100447.06;10311779;28;20283;-54
2023/07/18 09:55:21;;;;;;;2.88;1.42;;;;;;;26.10;35.14;100430.63;10313289;28;20061;-54
2023/07/18 10:00:23;;;;;;;3.03;1.50;;;;;;;26.33;34.00;100440.94;10319952;28;20050;-55
2023/07/18 10:05:26;;;;;;;3.17;1.00;;;;;;;26.61;32.78;100458.75;10316446;28;20096;-55
2023/07/18 10:10:28;;;;;;;;;;;;;;;26.31;33.02;100453.97;10317289;28;20049;-56
2023/07/18 10:15:30;;;;;;;2.53;1.35;;;;;;;26.19;31.97;100458.47;10313451;28;19921;-56
2023/07/18 10:20:33;;;;;;;3.38;1.10;;;;;;;26.28;32.67;100470.78;10318860;28;20096;-55
2023/07/18 10:25:39;;;;;;;2.83;1.48;;;;;;;26.62;32.81;100483.09;10312234;28;20050;-55
2023/07/18 10:30:41;;;;;;;3.50;1.58;;;;;;;26.87;31.23;100492.34;10312027;28;20069;-55
2023/07/18 10:35:43;;;;;;;3.90;1.52;;;;;;;26.74;31.44;100487.84;10315066;28;20132;-53
2023/07/18 10:40:45;;;;;;;2.78;1.80;;;;;;;26.74;32.25;100469.56;10321235;28;20108;-55
2023/07/18 10:45:47;;;;;;;2.17;1.42;;;;;;;27.12;31.37;100437.66;10313689;28;20046;-55
2023/07/18 10:50:49;;;;;;;2.43;1.37;;;;;;;27.20;30.67;100411.91;10306948;28;20065;-54
2023/07/18 10:55:52;;;;;;;4.20;1.80;;;;;;;27.22;31.17;100399.69;10306726;28;20050;-55
2023/07/18 11:00:53;;;;;;;2.50;1.30;;;;;;;27.34;31.32;100392.41;10315304;28;20082;-54
2023/07/18 11:05:54;;;;;;;4.45;1.27;;;;;;;27.40;31.00;100379.72;10311975;28;20065;-58
2023/07/18 11:10:58;;;;;;;2.05;1.30;;;;;;;27.71;30.74;100385.97;10316593;28;20081;-55
2023/07/18 11:16:04;;;;;;;2.22;1.38;;;;;;;27.93;30.72;100364.38;10318574;28;20424;-54
2023/07/18 11:21:07;;;;;;;1.88;1.48;;;;;;;28.10;29.94;100372.75;10314789;28;20145;-55
2023/07/18 11:26:12;;;;;;;2.78;1.30;;;;;;;28.19;28.22;100370.50;10311190;28;20056;-56
2023/07/18 11:31:28;;;;;;;2.92;1.48;;;;;;;28.10;30.17;100361.81;10318743;28;20054;-55
2023/07/18 11:36:42;;;;;;;3.17;1.50;;;;;;;27.98;29.33;100341.81;10312808;28;20057;-56
2023/07/18 11:41:44;;;;;;;2.57;1.40;;;;;;;28.12;30.21;100339.69;10314504;28;20053;-56
2023/07/18 11:46:46;;;;;;;;;;;;;;;28.11;29.10;100333.38;10316146;28;20144;-54
2023/07/18 11:51:47;;;;;;;2.38;1.40;;;;;;;28.03;28.85;100312.69;10316141;28;19925;-54
2023/07/18 11:56:48;;;;;;;4.10;1.55;;;;;;;27.91;30.05;100313.72;10313650;28;20914;-54
2023/07/18 12:01:50;;;;;;;4.22;1.55;;;;;;;28.30;29.09;100308.63;10315539;28;20060;-54
2023/07/18 12:06:52;;;;;;;3.07;1.57;;;;;;;28.33;28.90;100303.53;10311683;28;20045;-54
2023/07/18 12:11:54;;;;;;;2.00;1.20;;;;;;;28.46;29.20;100305.16;10316459;28;20077;-54
2023/07/18 12:16:55;;;;;;;4.47;1.33;;;;;;;28.47;29.44;100290.41;10314928;28;20057;-54
2023/07/18 12:21:57;;;;;;;2.88;1.17;;;;;;;28.47;29.04;100279.44;10310867;28;20607;-54
2023/07/18 12:26:59;;;;;;;3.63;1.25;;;;;;;28.69;28.84;100281.56;10311557;28;20061;-54
2023/07/18 12:32:00;;;;;;;3.78;1.65;;;;;;;28.74;27.45;100274.28;10314963;28;20117;-54
2023/07/18 12:37:02;;;;;;;4.63;1.20;;;;;;;28.81;28.41;100274.16;10315497;28;20758;-53
2023/07/18 12:42:04;;;;;;;3.73;1.30;;;;;;;28.89;28.57;100260.03;10319691;28;20670;-53
2023/07/18 12:47:09;;;;;;;2.08;1.38;;;;;;;28.89;27.92;100231.84;10321874;28;20101;-55
2023/07/18 12:52:11;;;;;;;2.47;1.40;;;;;;;28.76;27.50;100215.69;10319926;28;20348;-54
2023/07/18 12:57:12;;;;;;;3.13;1.47;;;;;;;28.70;27.58;100201.88;10316472;28;20099;-53
2023/07/18 13:02:14;;;;;;;4.13;1.40;;;;;;;28.70;27.70;100184.63;10323409;28;20656;-54
2023/07/18 13:07:16;;;;;;;2.17;1.00;;;;;;;28.70;28.88;100179.16;10316328;28;20072;-53
2023/07/18 13:12:18;;;;;;;2.87;0.97;;;;;;;28.71;27.84;100175.34;10319855;28;20253;-53
2023/07/18 13:17:20;;;;;;;2.07;1.00;;;;;;;28.67;28.17;100176.91;10315862;28;20977;-54
2023/07/18 13:22:22;;;;;;;3.00;1.90;;;;;;;28.69;28.56;100172.00;10311261;28;20057;-53
2023/07/18 13:27:24;;;;;;;2.53;1.35;;;;;;;28.75;28.54;100165.59;10302425;28;20127;-54
2023/07/18 13:32:25;;;;;;;2.50;1.35;;;;;;;28.74;28.46;100152.97;10328341;28;20085;-53
2023/07/18 13:37:27;;;;;;;4.20;1.10;;;;;;;28.64;28.44;100136.34;10317160;28;20045;-58
2023/07/18 13:42:28;;;;;;;2.33;1.33;;;;;;;28.46;28.01;100124.47;10316257;28;20609;-55
2023/07/18 13:47:30;;;;;;;2.42;1.00;;;;;;;28.47;28.81;100126.16;10313912;28;20081;-55
2023/07/18 13:52:31;;;;;;;4.18;1.40;;;;;;;28.45;28.39;100111.03;10318549;28;20062;-56
2023/07/18 13:57:33;;;;;;;4.03;1.70;;;;;;;28.48;28.52;100116.88;10315971;28;20050;-56
2023/07/18 14:02:34;;;;;;;2.00;1.37;;;;;;;28.26;28.32;100102.22;10314507;28;20642;-54
2023/07/18 14:07:36;;;;;;;2.90;1.87;;;;;;;28.28;28.98;100100.06;10306357;28;20416;-55
2023/07/18 14:12:38;;;;;;;2.17;1.33;;;;;;;28.27;28.97;100092.91;10307433;28;20667;-55
2023/07/18 14:17:39;;;;;;;4.20;1.30;;;;;;;28.39;28.87;100108.22;10303416;28;20112;-54
2023/07/18 14:22:42;;;;;;;2.87;1.47;;;;;;;28.35;28.57;100114.44;10308021;28;20045;-56
2023/07/18 14:27:46;;;;;;;4.10;1.77;;;;;;;28.27;28.96;100107.44;10309779;28;20050;-53
2023/07/18 14:32:48;;;;;;;2.65;1.40;;;;;;;28.28;28.86;100102.78;10307622;28;20050;-55
2023/07/18 14:37:50;;;;;;;2.73;1.30;;;;;;;28.15;29.07;100099.28;10312676;28;20053;-59
2023/07/18 14:42:53;;;;;;;3.92;1.42;;;;;;;28.18;28.72;100101.53;10303293;28;20053;-55
2023/07/18 14:47:55;;;;;;;1.83;1.30;;;;;;;28.12;28.76;100094.31;10310402;28;20054;-57
2023/07/18 14:52:56;;;;;;;2.45;1.42;;;;;;;27.95;28.54;100087.91;10310969;28;20054;-55
2023/07/18 14:57:58;;;;;;;3.70;1.55;;;;;;;27.94;28.90;100078.03;10309512;28;20139;-55
2023/07/18 15:03:00;;;;;;;3.37;1.40;;;;;;;27.90;28.97;100076.88;10308709;28;20053;-54
2023/07/18 15:08:03;;;;;;;2.38;1.70;;;;;;;27.86;29.09;100065.56;10296461;28;20315;-55
2023/07/18 15:13:08;;;;;;;2.45;1.15;;;;;;;27.82;29.36;100058.94;10292907;28;20147;-54
2023/07/18 15:18:10;;;;;;;2.07;1.00;;;;;;;27.82;29.64;100050.72;10312890;28;20443;-54
2023/07/18 15:23:11;;;;;;;3.97;1.13;;;;;;;27.78;28.94;100033.97;10305857;28;20072;-55
2023/07/18 15:28:14;;;;;;;2.70;1.48;;;;;;;27.75;29.42;100028.97;10306864;28;20049;-55
2023/07/18 15:33:16;;;;;;;3.05;1.30;;;;;;;27.69;28.64;100019.03;10308586;28;20057;-54
2023/07/18 15:38:27;;;;;;;2.05;1.58;;;;;;;27.46;28.73;100001.63;10308834;28;20108;-54
2023/07/18 15:43:29;;;;;;;3.40;1.50;;;;;;;27.49;29.05;100003.03;10310820;28;20042;-53
2023/07/18 15:48:30;;;;;;;3.63;1.38;;;;;;;27.55;29.65;99987.56;10306581;28;20054;-54
2023/07/18 15:53:32;;;;;;;2.72;1.45;;;;;;;27.60;29.79;99980.28;10303848;28;20049;-54
2023/07/18 15:58:34;;;;;;;3.75;1.58;;;;;;;27.70;30.24;99979.69;10304729;28;20712;-54
2023/07/18 16:03:36;;;;;;;3.47;1.43;;;;;;;27.65;29.69;99960.44;10305984;28;20061;-54
2023/07/18 16:08:37;;;;;;;3.20;1.40;;;;;;;27.69;29.55;99967.06;10298249;28;20061;-55
2023/07/18 16:13:39;;;;;;;1.42;1.20;;;;;;;27.64;29.74;99965.06;10309931;28;20050;-56
2023/07/18 16:18:54;;;;;;;3.50;1.52;;;;;;;27.63;29.81;99962.59;10306779;28;20108;-55
2023/07/18 16:23:56;;;;;;;3.35;1.40;;;;;;;27.59;29.55;99955.94;10312925;28;20061;-56
2023/07/18 16:28:58;;;;;;;2.03;1.23;;;;;;;27.55;29.87;99938.34;10314758;28;20173;-55
2023/07/18 16:33:59;;;;;;;2.85;1.20;;;;;;;27.61;29.39;99938.22;10316952;28;20156;-55
2023/07/18 16:39:01;;;;;;;2.88;1.25;;;;;;;27.57;29.92;99919.81;10316538;28;20062;-54
2023/07/18 16:44:03;;;;;;;2.70;1.50;;;;;;;27.55;30.10;99927.41;10314517;28;20279;-54
2023/07/18 16:49:05;;;;;;;2.83;1.50;;;;;;;27.53;30.23;99916.72;10316034;28;20317;-56
2023/07/18 16:54:06;;;;;;;4.63;1.80;;;;;;;27.51;29.91;99908.78;10317471;28;20492;-55
2023/07/18 16:59:08;;;;;;;2.63;1.58;;;;;;;27.48;29.98;99906.53;10314854;28;20073;-54
2023/07/18 17:04:09;;;;;;;2.42;1.67;;;;;;;27.49;29.79;99902.72;10314643;28;20798;-56
2023/07/18 17:09:11;;;;;;;2.75;1.25;;;;;;;27.47;30.09;99904.91;10315712;28;20060;-55
2023/07/18 17:14:12;;;;;;;3.45;1.20;;;;;;;27.45;30.31;99898.00;10316445;28;20076;-60
2023/07/18 17:19:14;;;;;;;3.45;1.50;;;;;;;27.42;29.96;99906.69;10317880;28;20074;-54
2023/07/18 17:24:15;;;;;;;3.95;1.67;;;;;;;27.36;30.10;99900.28;10313599;28;20084;-55
2023/07/18 17:29:18;;;;;;;2.97;1.80;;;;;;;27.28;30.70;99887.00;10311818;28;20144;-55
2023/07/18 17:34:19;;;;;;;2.22;1.50;;;;;;;27.27;30.72;99905.28;10311592;28;20140;-54
2023/07/18 17:39:21;;;;;;;2.70;1.17;;;;;;;27.21;30.77;99891.75;10323238;28;20727;-56
2023/07/18 17:44:25;;;;;;;2.35;1.27;;;;;;;27.21;30.95;99899.97;10316889;28;20069;-54
2023/07/18 17:49:26;;;;;;;4.03;1.75;;;;;;;27.14;30.39;99890.00;10319197;28;20172;-54
2023/07/18 17:54:28;;;;;;;2.67;1.40;;;;;;;27.06;30.70;99879.44;10316526;28;20991;-54
2023/07/18 17:59:30;;;;;;;3.05;1.27;;;;;;;26.99;30.93;99876.84;10314098;28;20053;-55
2023/07/18 18:04:31;;;;;;;4.00;1.90;;;;;;;26.94;31.03;99867.72;10320831;28;20169;-54
2023/07/18 18:09:33;;;;;;;3.72;1.80;;;;;;;26.89;31.69;99873.06;10320175;28;20053;-55
2023/07/18 18:14:34;;;;;;;2.17;1.40;;;;;;;26.80;31.48;99867.97;10316900;28;20448;-54
2023/07/18 18:19:36;;;;;;;2.58;1.30;;;;;;;26.79;31.85;99877.22;10313059;28;20058;-54
2023/07/18 18:24:37;;;;;;;3.38;1.88;;;;;;;26.74;31.98;99879.88;10317777;28;20046;-57
2023/07/18 18:29:39;;;;;;;3.05;1.50;;;;;;;26.70;32.15;99877.84;10309986;28;20049;-55
2023/07/18 18:34:40;;;;;;;2.67;1.30;;;;;;;26.67;32.51;99881.88;10313333;28;20057;-54
2023/07/18 18:40:03;;;;;;;3.58;1.52;;;;;;;26.58;32.54;99881.38;10314620;28;20465;-54
2023/07/18 18:45:05;;;;;;;2.65;1.42;;;;;;;26.52;32.46;99881.53;10308099;28;20439;-54
2023/07/18 18:50:10;;;;;;;2.70;1.97;;;;;;;26.48;32.82;99894.78;10318124;28;20881;-54
2023/07/18 18:55:12;;;;;;;1.95;1.75;;;;;;;26.39;32.57;99888.88;10310139;28;20542;-55
2023/07/18 19:00:22;;;;;;;3.47;1.55;;;;;;;26.36;33.31;99896.69;10304310;28;20161;-55
2023/07/18 19:05:24;;;;;;;2.63;1.45;;;;;;;26.18;33.12;99886.72;10310893;28;20053;-54
2023/07/18 19:10:26;;;;;;;4.85;1.80;;;;;;;26.21;33.02;99883.50;10310477;28;20053;-55
2023/07/18 19:15:28;;;;;;;4.40;1.95;;;;;;;26.15;33.38;99887.19;10302414;28;20746;-54
2023/07/18 19:20:30;;;;;;;4.10;2.05;;;;;;;26.09;33.71;99897.97;10304123;28;20072;-55
2023/07/18 19:25:31;;;;;;;5.72;1.98;;;;;;;26.04;34.02;99891.56;10302426;28;20412;-54
2023/07/18 19:30:33;;;;;;;3.40;1.63;;;;;;;25.89;33.74;99890.06;10308748;28;20046;-54
2023/07/18 19:35:35;;;;;;;4.68;1.85;;;;;;;25.86;34.32;99889.72;10307243;28;20069;-60
2023/07/18 19:40:37;;;;;;;1.97;1.33;;;;;;;25.80;34.31;99890.66;10302467;28;20597;-55
2023/07/18 19:45:38;;;;;;;1.63;1.33;;;;;;;25.72;34.34;99895.38;10305147;28;20062;-56
2023/07/18 19:50:42;;;;;;;6.00;2.05;;;;;;;25.70;34.32;99897.50;10288960;28;20061;-56
2023/07/18 19:55:47;;;;;;;5.07;1.55;;;;;;;25.62;34.16;99910.63;10302378;28;20061;-59
2023/07/18 20:00:48;;;;;;;4.80;1.70;;;;;;;25.52;34.29;99928.34;10292791;28;20049;-58
2023/07/18 20:05:51;;;;;;;2.73;1.70;;;;;;;25.49;34.80;99911.63;10274820;28;20897;-58
2023/07/18 20:10:53;;;;;;;2.00;1.50;;;;;;;25.47;35.20;99902.84;10261110;28;20046;-57
2023/07/18 20:15:55;;;;;;;3.65;1.30;;;;;;;25.45;35.22;99885.91;10282393;28;20092;-58
2023/07/18 20:20:58;;;;;;;2.10;1.70;;;;;;;25.34;35.10;99882.91;10304721;28;20053;-58
2023/07/18 20:25:59;;;;;;;4.47;1.80;;;;;;;25.33;35.29;99883.97;10308321;28;20126;-58
2023/07/18 20:31:01;;;;;;;4.82;1.88;;;;;;;25.28;35.26;99883.78;10307937;28;20916;-58
2023/07/18 20:36:02;;;;;;;3.88;2.20;;;;;;;25.19;35.76;99885.16;10278833;28;20079;-58
2023/07/18 20:41:05;;;;;;;3.35;1.63;;;;;;;25.13;35.20;99883.34;10294079;28;20760;-58
2023/07/18 20:46:12;;;;;;;2.83;1.73;;;;;;;25.08;35.08;99885.94;10305828;28;20204;-58
2023/07/18 20:51:14;;;;;;;3.38;1.73;;;;;;;24.85;34.92;99871.13;10309911;28;20073;-58
2023/07/18 20:56:16;;;;;;;3.55;1.98;;;;;;;24.99;36.39;99886.22;10283121;28;20061;-58
2023/07/18 21:01:17;;;;;;;4.88;2.33;;;;;;;24.94;36.42;99872.47;10322687;28;21346;-59
2023/07/18 21:06:19;;;;;;;4.93;2.53;;;;;;;24.94;36.38;99886.09;10320883;28;20050;-57
2023/07/18 21:11:21;;;;;;;3.22;2.53;;;;;;;24.84;35.92;99878.44;10315175;28;20889;-58
2023/07/18 21:16:23;;;;;;;6.03;2.60;;;;;;;24.81;36.06;99889.78;10322430;28;20045;-58
2023/07/18 21:21:25;;;;;;;5.35;3.03;;;;;;;24.74;36.91;99880.03;10310797;28;20083;-60
2023/07/18 21:26:27;;;;;;;5.57;2.80;;;;;;;24.72;37.44;99869.38;10307095;28;20050;-58
2023/07/18 21:31:31;;;;;;;4.57;1.90;;;;;;;24.75;36.73;99862.66;10304659;28;20188;-58
2023/07/18 21:36:34;;;;;;;4.38;2.33;;;;;;;24.74;36.47;99871.84;10258641;28;20060;-58
2023/07/18 21:41:37;;;;;;;4.25;2.00;;;;;;;24.66;37.74;99859.38;10304638;28;20061;-59
2023/07/18 21:46:39;;;;;;;7.70;2.03;;;;;;;24.68;37.77;99868.16;10319075;28;20168;-59
2023/07/18 21:51:41;;;;;;;3.00;1.98;;;;;;;24.64;37.45;99878.66;10321426;28;20061;-58
2023/07/18 21:56:42;;;;;;;3.92;1.88;;;;;;;24.60;38.02;99863.00;10304055;28;20120;-57
2023/07/18 22:01:45;;;;;;;4.53;1.83;;;;;;;24.47;38.26;99847.63;10329187;28;20048;-57
2023/07/18 22:06:46;;;;;;;3.13;1.77;;;;;;;24.32;37.41;99832.50;10301894;28;20077;-59
2023/07/18 22:11:50;;;;;;;4.55;1.60;;;;;;;24.46;38.26;99860.41;10308758;28;20053;-58
2023/07/18 22:16:52;;;;;;;3.13;1.98;;;;;;;24.43;38.15;99860.84;10314829;28;20060;-57
2023/07/18 22:21:54;;;;;;;4.40;2.03;;;;;;;24.39;38.22;99854.19;10295004;28;20113;-58
2023/07/18 22:26:57;;;;;;;2.65;2.13;;;;;;;24.36;38.30;99843.75;10313736;28;20694;-58
2023/07/18 22:32:00;;;;;;;6.15;1.67;;;;;;;24.32;38.25;99854.25;10321186;28;20569;-59
2023/07/18 22:37:01;;;;;;;;;;;;;;;24.38;38.28;99866.13;10310714;28;20068;-59
2023/07/18 22:42:18;;;;;;;2.60;1.70;;;;;;;23.90;38.38;99796.06;10328325;28;20597;-57
2023/07/18 22:47:19;;;;;;;5.35;2.00;;;;;;;24.07;38.25;99821.66;10298833;28;20117;-60
2023/07/18 22:52:21;;;;;;;3.75;2.60;;;;;;;24.24;38.64;99859.16;10323925;28;20068;-58
2023/07/18 22:57:24;;;;;;;6.30;1.98;;;;;;;24.15;39.04;99842.28;10321088;28;20061;-57
2023/07/18 23:02:25;;;;;;;4.88;1.92;;;;;;;24.08;39.33;99834.19;10321454;28;20050;-59
2023/07/18 23:07:27;;;;;;;4.75;1.95;;;;;;;24.02;39.58;99821.50;10301028;28;20113;-58
2023/07/18 23:12:29;;;;;;;6.93;2.30;;;;;;;24.03;39.67;99827.75;10316828;28;20062;-58
2023/07/18 23:17:31;;;;;;;5.05;2.45;;;;;;;23.88;39.94;99807.16;10314584;28;20438;-58